Dart — OUOV2 — position and weather

sailwx.info

Track history (hours):
 
Tides and Currents Weather Stations Pressure Air Temp Water Temp Dewpoint Dewpoint Depression Visibility Wind Speed Wind Dir Waves Ship Positions

Dart

Last reported at 2015-Jul-01 12:14 UTC. Time now 2015-Jul-01 15:14 UTC.
Position N 53°21' E 004°30'.

Length 66 m; draft 4 m.

Type: Tanker. MMSI: 219416000.

Date/timePositionNaut miles runAvg speedWind from/ knotsBaromVisibWave heightAir tempDewpointWater temp
2015-Jul-01 12:14N 53°21' E 004°30'17 9.9
2015-Jul-01 10:32N 53°36' E 004°39'9 9.5
2015-Jul-01 09:33N 53°45' E 004°45'9 9.1
2015-Jul-01 08:33N 53°53' E 004°52'9 8.8
2015-Jul-01 07:33N 54°02' E 004°57'9 8.8
2015-Jul-01 06:31N 54°11' E 004°57'9 8.8
2015-Jul-01 05:33N 54°19' E 004°57'9 8.8
2015-Jul-01 04:31N 54°28' E 004°56'10 8.9
2015-Jul-01 03:25N 54°38' E 004°56'8 9.0
2015-Jul-01 02:33N 54°46' E 004°56'9 9.0
2015-Jul-01 01:33N 54°55' E 004°56'9 9.1
2015-Jul-01 00:33N 55°04' E 004°57'196 9.3
2015-Jun-30 03:28N 58°19' E 005°43'9 8.7
2015-Jun-30 02:29N 58°27' E 005°37'9 8.4
2015-Jun-30 01:28N 58°35' E 005°31'8 8.4
2015-Jun-30 00:34N 58°42' E 005°26'8 8.1
2015-Jun-29 23:34N 58°50' E 005°27'9 8.8
2015-Jun-29 22:33N 58°58' E 005°33'4 4.1
2015-Jun-29 21:34N 58°60' E 005°40'0 0.0
2015-Jun-29 20:31N 58°60' E 005°40'0 0.0
2015-Jun-29 19:31N 58°60' E 005°40'0 0.0
2015-Jun-29 18:31N 58°60' E 005°40'0 0.0
2015-Jun-29 17:31N 58°60' E 005°40'0 0.0
2015-Jun-29 16:31N 58°60' E 005°40'0 0.0
2015-Jun-29 15:31N 58°60' E 005°40'0 0.5
2015-Jun-29 14:33N 59°00' E 005°40'5 5.5
2015-Jun-29 13:33N 59°05' E 005°33'9 8.7
2015-Jun-29 12:33N 59°10' E 005°21'  
2015-Jun-25 19:19N 63°06' E 007°41'1 0.0
2015-Jun-24 17:24N 63°05' E 007°42'237 5.0
2015-Jun-22 18:14N 59°18' E 005°20'6 8.7
2015-Jun-22 17:33N 59°12' E 005°21'8 8.1
2015-Jun-22 16:34N 59°06' E 005°31'9 9.2
2015-Jun-22 15:33N 58°57' E 005°33'2 2.2
2015-Jun-22 14:33N 58°55' E 005°36'0 0.0
2015-Jun-22 13:33N 58°55' E 005°36'0 0.0
2015-Jun-22 12:30N 58°55' E 005°36'0 0.0
2015-Jun-22 11:33N 58°55' E 005°36'0 0.0
2015-Jun-22 10:34N 58°55' E 005°36'0 0.0
2015-Jun-22 09:34N 58°55' E 005°36'0 0.0
2015-Jun-22 08:33N 58°55' E 005°36'0 0.0
2015-Jun-22 07:34N 58°55' E 005°36'0 0.3
2015-Jun-22 06:33N 58°56' E 005°36'0 0.0
2015-Jun-22 05:33N 58°56' E 005°36'1 1.1
2015-Jun-22 04:33N 58°56' E 005°34'6 5.7
2015-Jun-22 03:34N 59°01' E 005°40'1 0.8
2015-Jun-22 02:32N 58°60' E 005°40'0 0.0
2015-Jun-22 01:32N 58°60' E 005°40'0 0.0
2015-Jun-22 00:32N 58°60' E 005°40'0 0.0
2015-Jun-21 23:32N 58°60' E 005°40'0 0.0
2015-Jun-21 22:32N 58°60' E 005°40'0 0.0
2015-Jun-21 21:29N 58°60' E 005°40'0 0.0
2015-Jun-21 20:32N 58°60' E 005°40'0 0.0
2015-Jun-21 19:32N 58°60' E 005°40'0 0.0
2015-Jun-21 18:32N 58°60' E 005°40'0 0.0
2015-Jun-21 17:32N 58°60' E 005°40'0 0.0
2015-Jun-21 16:30N 58°60' E 005°40'0 0.0
2015-Jun-21 15:33N 58°60' E 005°40'0 0.3
2015-Jun-21 14:34N 59°00' E 005°40'4 4.2
2015-Jun-21 13:33N 58°58' E 005°33'3 2.6
2015-Jun-21 12:31N 58°56' E 005°35'  
Track history (hours):
 
Tides and Currents Weather Stations Pressure Air Temp Water Temp Dewpoint Dewpoint Depression Visibility Wind Speed Wind Dir Waves Ship Positions

Dart

Last reported at 2015-Jul-01 12:14 UTC. Time now 2015-Jul-01 15:14 UTC.
Position N 53°21' E 004°30'.

Length 66 m; draft 4 m.

Type: Tanker. MMSI: 219416000.

Date/timePositionNaut miles runAvg speedWind from/ knotsBaromVisibWave heightAir tempDewpointWater temp
2015-Jul-01 12:14N 53°21' E 004°30'17 9.9
2015-Jul-01 10:32N 53°36' E 004°39'9 9.5
2015-Jul-01 09:33N 53°45' E 004°45'9 9.1
2015-Jul-01 08:33N 53°53' E 004°52'9 8.8
2015-Jul-01 07:33N 54°02' E 004°57'9 8.8
2015-Jul-01 06:31N 54°11' E 004°57'9 8.8
2015-Jul-01 05:33N 54°19' E 004°57'9 8.8
2015-Jul-01 04:31N 54°28' E 004°56'10 8.9
2015-Jul-01 03:25N 54°38' E 004°56'8 9.0
2015-Jul-01 02:33N 54°46' E 004°56'9 9.0
2015-Jul-01 01:33N 54°55' E 004°56'9 9.1
2015-Jul-01 00:33N 55°04' E 004°57'196 9.3
2015-Jun-30 03:28N 58°19' E 005°43'9 8.7
2015-Jun-30 02:29N 58°27' E 005°37'9 8.4
2015-Jun-30 01:28N 58°35' E 005°31'8 8.4
2015-Jun-30 00:34N 58°42' E 005°26'8 8.1
2015-Jun-29 23:34N 58°50' E 005°27'9 8.8
2015-Jun-29 22:33N 58°58' E 005°33'4 4.1
2015-Jun-29 21:34N 58°60' E 005°40'0 0.0
2015-Jun-29 20:31N 58°60' E 005°40'0 0.0
2015-Jun-29 19:31N 58°60' E 005°40'0 0.0
2015-Jun-29 18:31N 58°60' E 005°40'0 0.0
2015-Jun-29 17:31N 58°60' E 005°40'0 0.0
2015-Jun-29 16:31N 58°60' E 005°40'0 0.0
2015-Jun-29 15:31N 58°60' E 005°40'0 0.5
2015-Jun-29 14:33N 59°00' E 005°40'5 5.5
2015-Jun-29 13:33N 59°05' E 005°33'9 8.7
2015-Jun-29 12:33N 59°10' E 005°21'  
2015-Jun-25 19:19N 63°06' E 007°41'1 0.0
2015-Jun-24 17:24N 63°05' E 007°42'237 5.0
2015-Jun-22 18:14N 59°18' E 005°20'6 8.7
2015-Jun-22 17:33N 59°12' E 005°21'8 8.1
2015-Jun-22 16:34N 59°06' E 005°31'9 9.2
2015-Jun-22 15:33N 58°57' E 005°33'2 2.2
2015-Jun-22 14:33N 58°55' E 005°36'0 0.0
2015-Jun-22 13:33N 58°55' E 005°36'0 0.0
2015-Jun-22 12:30N 58°55' E 005°36'0 0.0
2015-Jun-22 11:33N 58°55' E 005°36'0 0.0
2015-Jun-22 10:34N 58°55' E 005°36'0 0.0
2015-Jun-22 09:34N 58°55' E 005°36'0 0.0
2015-Jun-22 08:33N 58°55' E 005°36'0 0.0
2015-Jun-22 07:34N 58°55' E 005°36'0 0.3
2015-Jun-22 06:33N 58°56' E 005°36'0 0.0
2015-Jun-22 05:33N 58°56' E 005°36'1 1.1
2015-Jun-22 04:33N 58°56' E 005°34'6 5.7
2015-Jun-22 03:34N 59°01' E 005°40'1 0.8
2015-Jun-22 02:32N 58°60' E 005°40'0 0.0
2015-Jun-22 01:32N 58°60' E 005°40'0 0.0
2015-Jun-22 00:32N 58°60' E 005°40'0 0.0
2015-Jun-21 23:32N 58°60' E 005°40'0 0.0
2015-Jun-21 22:32N 58°60' E 005°40'0 0.0
2015-Jun-21 21:29N 58°60' E 005°40'0 0.0
2015-Jun-21 20:32N 58°60' E 005°40'0 0.0
2015-Jun-21 19:32N 58°60' E 005°40'0 0.0
2015-Jun-21 18:32N 58°60' E 005°40'0 0.0
2015-Jun-21 17:32N 58°60' E 005°40'0 0.0
2015-Jun-21 16:30N 58°60' E 005°40'0 0.0
2015-Jun-21 15:33N 58°60' E 005°40'0 0.3
2015-Jun-21 14:34N 59°00' E 005°40'4 4.2
2015-Jun-21 13:33N 58°58' E 005°33'3 2.6
2015-Jun-21 12:31N 58°56' E 005°35'  

Dump ship's entire track history